createdAt,value
2022-12-08T00:00:39.890Z,100713.13
2022-12-08T00:03:05.580Z,100715.91
2022-12-08T00:05:51.171Z,100712.31
2022-12-08T00:08:36.628Z,100708.44
2022-12-08T00:11:02.181Z,100713.38
2022-12-08T00:13:27.733Z,100704.03
2022-12-08T00:15:56.656Z,100701.28
2022-12-08T00:18:22.197Z,100699.59
2022-12-08T00:20:53.514Z,100697.69
2022-12-08T00:23:19.051Z,100694.06
2022-12-08T00:25:44.608Z,100677.50
2022-12-08T00:28:10.161Z,100680.28
2022-12-08T00:30:36.873Z,100683.03
2022-12-08T00:33:02.415Z,100675.59
2022-12-08T00:35:27.973Z,100683.03
2022-12-08T00:37:59.083Z,100674.75
2022-12-08T00:40:26.339Z,100672.84
2022-12-08T00:42:51.892Z,100673.09
2022-12-08T00:45:17.486Z,100661.81
2022-12-08T00:47:43.027Z,100660.13
2022-12-08T00:50:08.832Z,100653.81
2022-12-08T00:52:34.377Z,100649.09
2022-12-08T00:54:59.926Z,100648.28
2022-12-08T00:57:25.496Z,100654.63
2022-12-08T00:59:51.051Z,100651.03
2022-12-08T01:02:16.596Z,100651.88
2022-12-08T01:04:42.248Z,100652.97
2022-12-08T01:07:07.794Z,100644.72
2022-12-08T01:09:33.360Z,100648.28
2022-12-08T01:11:58.903Z,100649.94
2022-12-08T01:14:24.458Z,100646.34
2022-12-08T01:16:50.030Z,100647.47
2022-12-08T01:19:15.914Z,100647.47
2022-12-08T01:21:41.539Z,100650.22
2022-12-08T01:24:08.638Z,100652.97
2022-12-08T01:26:34.187Z,100655.75
2022-12-08T01:28:59.737Z,100652.16
2022-12-08T01:31:25.355Z,100645.81
2022-12-08T01:33:50.985Z,100651.88
2022-12-08T01:36:19.099Z,100656.84
2022-12-08T01:38:44.641Z,100644.72
2022-12-08T01:41:12.851Z,100651.34
2022-12-08T01:43:58.283Z,100643.06
2022-12-08T01:46:24.194Z,100649.41
2022-12-08T01:48:50.715Z,100641.13
2022-12-08T01:51:16.366Z,100645.81
2022-12-08T01:53:41.911Z,100645.81
2022-12-08T01:56:08.869Z,100638.66
2022-12-08T01:58:35.404Z,100641.41
2022-12-08T02:01:01.074Z,100635.06
2022-12-08T02:03:27.879Z,100633.97
2022-12-08T02:05:53.418Z,100631.22
2022-12-08T02:08:19.036Z,100626.78
2022-12-08T02:10:46.083Z,100627.63
2022-12-08T02:13:13.896Z,100631.22
2022-12-08T02:15:45.309Z,100624.88
2022-12-08T02:18:29.821Z,100632.28
2022-12-08T02:20:59.035Z,100624.03
2022-12-08T02:23:28.125Z,100620.44
2022-12-08T02:26:03.839Z,100621.00
2022-12-08T02:28:49.274Z,100609.41
2022-12-08T02:31:21.116Z,100606.66
2022-12-08T02:34:05.631Z,100601.97
2022-12-08T02:36:41.959Z,100598.38
2022-12-08T02:39:27.427Z,100595.63
2022-12-08T02:41:55.783Z,100585.41
2022-12-08T02:44:41.216Z,100584.59
2022-12-08T02:47:08.399Z,100588.16
2022-12-08T02:49:34.323Z,100586.53
2022-12-08T02:52:16.994Z,100587.34
2022-12-08T02:54:43.433Z,100579.88
2022-12-08T02:57:15.035Z,100575.50
2022-12-08T02:59:47.569Z,100572.72
2022-12-08T03:02:19.112Z,100569.97
2022-12-08T03:04:45.917Z,100569.97
2022-12-08T03:07:21.935Z,100568.34
2022-12-08T03:10:05.217Z,100558.13
2022-12-08T03:12:33.172Z,100557.31
2022-12-08T03:14:59.682Z,100552.59
2022-12-08T03:17:25.562Z,100552.91
2022-12-08T03:19:51.439Z,100555.66
2022-12-08T03:22:18.076Z,100547.09
2022-12-08T03:24:43.997Z,100543.50
2022-12-08T03:27:11.996Z,100542.69
2022-12-08T03:29:37.617Z,100527.78
2022-12-08T03:32:07.476Z,100535.53
2022-12-08T03:34:33.050Z,100535.53
2022-12-08T03:36:59.466Z,100535.25
2022-12-08T03:39:25.028Z,100526.97
2022-12-08T03:41:50.612Z,100527.78
2022-12-08T03:44:16.167Z,100520.63
2022-12-08T03:46:41.708Z,100524.50
2022-12-08T03:49:07.260Z,100522.56
2022-12-08T03:51:32.800Z,100517.06
2022-12-08T03:53:58.354Z,100514.28
2022-12-08T03:56:24.918Z,100504.06
2022-12-08T03:58:50.568Z,100515.09
2022-12-08T04:01:16.112Z,100511.53
2022-12-08T04:03:41.667Z,100495.81
2022-12-08T04:06:07.262Z,100503.25
2022-12-08T04:08:32.835Z,100507.66
2022-12-08T04:10:58.381Z,100495.81
2022-12-08T04:13:23.939Z,100487.81
2022-12-08T04:15:49.514Z,100485.91
2022-12-08T04:18:15.098Z,100492.22
2022-12-08T04:20:40.925Z,100488.66
2022-12-08T04:23:06.768Z,100493.03
2022-12-08T04:25:32.554Z,100488.66
2022-12-08T04:27:58.110Z,100483.94
2022-12-08T04:30:23.650Z,100480.38
2022-12-08T04:32:49.215Z,100474.00
2022-12-08T04:35:14.749Z,100481.19
2022-12-08T04:37:40.292Z,100470.44
2022-12-08T04:40:06.329Z,100474.00
2022-12-08T04:42:32.106Z,100463.28
2022-12-08T04:44:57.683Z,100473.19
2022-12-08T04:47:23.233Z,100462.97
2022-12-08T04:49:48.788Z,100469.34
2022-12-08T04:52:14.335Z,100469.34
2022-12-08T04:54:39.888Z,100465.72
2022-12-08T04:57:05.436Z,100463.81
2022-12-08T04:59:30.990Z,100464.09
2022-12-08T05:01:56.703Z,100457.47
2022-12-08T05:04:22.408Z,100462.97
2022-12-08T05:06:47.954Z,100464.09
2022-12-08T05:09:13.520Z,100454.72
2022-12-08T05:11:46.850Z,100458.56
2022-12-08T05:14:14.677Z,100464.09
2022-12-08T05:16:40.384Z,100455.81
2022-12-08T05:19:05.972Z,100457.75
2022-12-08T05:21:31.514Z,100464.91
2022-12-08T05:23:57.064Z,100458.56
2022-12-08T05:26:22.600Z,100461.34
2022-12-08T05:28:48.152Z,100464.09
2022-12-08T05:31:14.334Z,100455.81
2022-12-08T05:33:39.925Z,100455.31
2022-12-08T05:36:05.633Z,100455.00
2022-12-08T05:38:31.185Z,100455.00
2022-12-08T05:40:56.729Z,100453.38
2022-12-08T05:43:22.274Z,100449.50
2022-12-08T05:45:47.919Z,100459.41
2022-12-08T05:48:13.496Z,100441.50
2022-12-08T05:50:39.052Z,100439.28
2022-12-08T05:53:04.621Z,100436.00
2022-12-08T05:55:30.170Z,100434.06
2022-12-08T05:57:55.735Z,100427.72
2022-12-08T06:00:21.421Z,100435.19
2022-12-08T06:02:47.139Z,100435.19
2022-12-08T06:05:12.912Z,100435.19
2022-12-08T06:07:38.528Z,100443.97
2022-12-08T06:10:04.854Z,100428.53
2022-12-08T06:12:30.596Z,100426.91
2022-12-08T06:14:56.164Z,100429.66
2022-12-08T06:17:21.712Z,100430.19
2022-12-08T06:19:47.269Z,100427.72
2022-12-08T06:22:12.811Z,100428.53
2022-12-08T06:24:38.364Z,100424.66
2022-12-08T06:27:03.915Z,100432.63
2022-12-08T06:29:29.472Z,100429.63
2022-12-08T06:31:55.078Z,100424.91
2022-12-08T06:34:20.673Z,100431.56
2022-12-08T06:36:46.209Z,100432.63
2022-12-08T06:39:11.763Z,100427.44
2022-12-08T06:41:57.205Z,100430.19
2022-12-08T06:44:22.775Z,100431.00
2022-12-08T06:46:48.321Z,100425.78
2022-12-08T06:49:13.876Z,100432.94
2022-12-08T06:51:39.416Z,100424.91
2022-12-08T06:54:04.981Z,100428.50
2022-12-08T06:56:30.566Z,100431.25
2022-12-08T06:58:56.121Z,100440.59
2022-12-08T07:01:21.731Z,100446.13
2022-12-08T07:03:47.344Z,100443.66
2022-12-08T07:06:13.925Z,100440.91
2022-12-08T07:08:39.472Z,100450.00
2022-12-08T07:11:05.694Z,100446.41
2022-12-08T07:13:31.257Z,100447.50
2022-12-08T07:15:56.813Z,100449.16
2022-12-08T07:18:22.366Z,100451.09
2022-12-08T07:20:47.922Z,100455.78
2022-12-08T07:23:13.510Z,100457.69
2022-12-08T07:25:39.063Z,100454.09
2022-12-08T07:28:08.601Z,100452.38
2022-12-08T07:30:34.220Z,100462.06
2022-12-08T07:32:59.805Z,100459.63
2022-12-08T07:35:25.374Z,100456.00
2022-12-08T07:37:50.917Z,100452.44
2022-12-08T07:40:16.479Z,100455.19
2022-12-08T07:42:42.016Z,100451.63
2022-12-08T07:45:07.777Z,100448.59
2022-12-08T07:47:33.319Z,100447.72
2022-12-08T07:49:58.872Z,100439.19
2022-12-08T07:52:24.420Z,100449.41
2022-12-08T07:54:49.972Z,100441.13
2022-12-08T07:57:15.950Z,100436.69
2022-12-08T07:59:41.510Z,100451.88
2022-12-08T08:02:24.296Z,100451.88
2022-12-08T08:04:50.803Z,100447.97
2022-12-08T08:07:16.386Z,100446.03
2022-12-08T08:09:41.949Z,100446.84
2022-12-08T08:12:30.289Z,100451.81
2022-12-08T08:14:53.728Z,100452.94
2022-12-08T08:17:19.393Z,100455.69
2022-12-08T08:19:45.207Z,100446.28
2022-12-08T08:22:10.744Z,100455.13
2022-12-08T08:24:39.167Z,100451.63
2022-12-08T08:27:08.754Z,100442.72
2022-12-08T08:29:34.308Z,100447.94
2022-12-08T08:31:59.865Z,100452.63
2022-12-08T08:34:25.425Z,100454.81
2022-12-08T08:36:51.010Z,100451.53
2022-12-08T08:39:16.604Z,100449.59
2022-12-08T08:41:42.154Z,100448.59
2022-12-08T08:44:07.693Z,100451.34
2022-12-08T08:46:33.386Z,100448.47
2022-12-08T08:48:58.977Z,100447.91
2022-12-08T08:51:24.553Z,100445.97
2022-12-08T08:53:50.089Z,100443.22
2022-12-08T08:56:18.452Z,100446.25
2022-12-08T08:58:44.253Z,100442.41
2022-12-08T09:01:14.049Z,100447.91
2022-12-08T09:03:39.642Z,100442.09
2022-12-08T09:06:05.317Z,100448.72
2022-12-08T09:08:31.341Z,100450.38
2022-12-08T09:10:56.944Z,100443.72
2022-12-08T09:13:22.750Z,100447.59
2022-12-08T09:15:48.397Z,100452.00
2022-12-08T09:18:13.974Z,100449.25
2022-12-08T09:20:39.528Z,100447.31
2022-12-08T09:23:05.085Z,100452.81
2022-12-08T09:25:30.643Z,100454.75
2022-12-08T09:27:56.287Z,100446.50
2022-12-08T09:30:21.913Z,100445.66
2022-12-08T09:32:47.497Z,100456.72
2022-12-08T09:35:13.109Z,100447.31
2022-12-08T09:37:38.675Z,100444.78
2022-12-08T09:40:06.387Z,100455.84
2022-12-08T09:42:35.514Z,100453.06
2022-12-08T09:45:16.476Z,100443.72
2022-12-08T09:47:43.102Z,100447.56
2022-12-08T09:50:29.072Z,100447.25
2022-12-08T09:53:14.517Z,100448.38
2022-12-08T09:55:42.379Z,100439.28
2022-12-08T09:58:11.617Z,100434.88
2022-12-08T10:00:37.176Z,100438.47
2022-12-08T10:03:02.754Z,100432.63
2022-12-08T10:05:28.376Z,100440.91
2022-12-08T10:08:04.760Z,100435.41
2022-12-08T10:10:37.563Z,100434.56
2022-12-08T10:13:07.769Z,100435.41
2022-12-08T10:15:37.318Z,100432.41
2022-12-08T10:18:03.554Z,100426.03
2022-12-08T10:20:35.081Z,100432.94
2022-12-08T10:23:05.945Z,100429.59
2022-12-08T10:25:33.865Z,100429.59
2022-12-08T10:27:59.421Z,100424.91
2022-12-08T10:30:24.991Z,100424.59
2022-12-08T10:32:50.970Z,100423.78
2022-12-08T10:35:17.221Z,100421.31
2022-12-08T10:37:58.682Z,100411.38
2022-12-08T10:40:26.189Z,100410.81
2022-12-08T10:42:52.257Z,100409.69
2022-12-08T10:45:25.858Z,100412.44
2022-12-08T10:48:11.292Z,100411.63
2022-12-08T10:53:27.255Z,100407.28
2022-12-08T10:56:12.603Z,100396.19
2022-12-08T10:58:40.422Z,100402.25
2022-12-08T11:01:14.452Z,100395.06
2022-12-08T11:03:48.405Z,100395.06
2022-12-08T11:06:16.723Z,100400.59
2022-12-08T11:08:44.141Z,100384.84
2022-12-08T11:11:09.688Z,100382.94
2022-12-08T11:13:37.410Z,100380.19
2022-12-08T11:16:03.060Z,100377.41
2022-12-08T11:18:29.355Z,100377.41
2022-12-08T11:20:56.030Z,100382.09
2022-12-08T11:23:21.879Z,100371.06
2022-12-08T11:25:47.835Z,100368.28
2022-12-08T11:28:13.397Z,100365.53
2022-12-08T11:30:41.159Z,100367.19
2022-12-08T11:33:15.561Z,100369.13
2022-12-08T11:35:42.214Z,100362.78
2022-12-08T11:38:23.204Z,100361.69
2022-12-08T11:40:51.079Z,100363.31
2022-12-08T11:43:36.539Z,100362.50
2022-12-08T11:46:03.807Z,100359.44
2022-12-08T11:48:31.439Z,100355.03
2022-12-08T11:50:59.960Z,100365.25
2022-12-08T11:53:31.070Z,100361.69
2022-12-08T11:55:57.671Z,100358.09
2022-12-08T11:58:24.698Z,100360.88
2022-12-08T12:00:50.284Z,100355.91
2022-12-08T12:03:18.794Z,100355.91
2022-12-08T12:08:56.729Z,100351.72
2022-12-08T12:12:02.126Z,100347.66
2022-12-08T12:14:43.300Z,100345.41
2022-12-08T12:17:20.559Z,100337.94
2022-12-08T12:19:46.146Z,100340.69
2022-12-08T12:22:16.422Z,100335.19
2022-12-08T12:24:42.316Z,100341.81
2022-12-08T12:27:17.752Z,100331.59
2022-12-08T12:29:48.719Z,100342.41
2022-12-08T12:32:16.445Z,100344.56
2022-12-08T12:34:50.287Z,100332.72
2022-12-08T12:37:16.485Z,100337.13
2022-12-08T12:39:46.596Z,100337.44
2022-12-08T12:42:32.032Z,100335.78
2022-12-08T12:45:09.820Z,100339.38
2022-12-08T12:47:56.830Z,100332.47
2022-12-08T12:50:42.743Z,100332.78
2022-12-08T12:53:18.224Z,100322.88
2022-12-08T12:58:20.900Z,100327.56
2022-12-08T13:00:46.458Z,100320.63
2022-12-08T13:03:13.509Z,100324.81
2022-12-08T13:05:46.445Z,100326.44
2022-12-08T13:08:18.348Z,100319.28
2022-12-08T13:10:48.960Z,100322.06
2022-12-08T13:13:16.639Z,100316.53
2022-12-08T13:18:20.593Z,100313.78
2022-12-08T13:20:46.765Z,100304.66
2022-12-08T13:23:24.218Z,100310.16
2022-12-08T13:25:50.541Z,100306.00
2022-12-08T13:28:31.142Z,100315.09
2022-12-08T13:30:58.510Z,100308.78
2022-12-08T13:33:25.681Z,100311.22
2022-12-08T13:36:11.164Z,100306.84
2022-12-08T13:38:36.894Z,100304.88
2022-12-08T13:41:02.864Z,100299.38
2022-12-08T13:43:51.001Z,100294.66
2022-12-08T13:47:16.800Z,100292.72
2022-12-08T13:50:55.709Z,100293.84
2022-12-08T13:53:49.364Z,100289.16
2022-12-08T13:57:48.951Z,100289.69
2022-12-08T14:00:15.436Z,100291.03
2022-12-08T14:02:47.348Z,100292.97
2022-12-08T14:05:35.176Z,100289.38
2022-12-08T14:07:59.255Z,100291.34
2022-12-08T14:10:26.424Z,100289.38
2022-12-08T14:12:54.834Z,100286.63
2022-12-08T14:15:20.688Z,100294.91
2022-12-08T14:17:49.999Z,100296.53
2022-12-08T14:20:19.586Z,100296.53
2022-12-08T14:22:45.864Z,100300.44
2022-12-08T14:25:13.084Z,100302.06
2022-12-08T14:27:38.693Z,100297.41
2022-12-08T14:30:06.880Z,100297.09
2022-12-08T14:32:33.645Z,100300.16
2022-12-08T14:35:00.547Z,100300.16
2022-12-08T14:37:27.301Z,100302.91
2022-12-08T14:39:53.127Z,100299.03
2022-12-08T14:42:21.210Z,100296.28
2022-12-08T14:44:46.761Z,100301.78
2022-12-08T14:47:17.120Z,100298.22
2022-12-08T14:49:43.688Z,100303.72
2022-12-08T14:52:10.652Z,100293.50
2022-12-08T14:54:36.293Z,100303.72
2022-12-08T14:57:01.834Z,100298.22
2022-12-08T14:59:29.299Z,100299.03
2022-12-08T15:02:11.583Z,100291.56
2022-12-08T15:04:37.413Z,100296.28
2022-12-08T15:07:06.719Z,100298.22
2022-12-08T15:09:49.140Z,100303.09
2022-12-08T15:14:56.854Z,100294.81
2022-12-08T15:17:42.286Z,100296.13
2022-12-08T15:20:34.602Z,100295.31
2022-12-08T15:23:00.800Z,100297.25
2022-12-08T15:25:26.348Z,100291.19
2022-12-08T15:27:52.826Z,100303.09
2022-12-08T15:30:18.436Z,100303.09
2022-12-08T15:32:44.083Z,100294.81
2022-12-08T15:35:13.217Z,100293.13
2022-12-08T15:37:38.774Z,100295.06
2022-12-08T15:40:05.615Z,100300.59
2022-12-08T15:42:31.413Z,100305.28
2022-12-08T15:44:56.952Z,100305.28
2022-12-08T15:47:23.056Z,100303.34
2022-12-08T15:49:49.001Z,100299.78
2022-12-08T15:52:15.383Z,100298.97
2022-12-08T15:54:40.943Z,100303.34
2022-12-08T15:59:52.358Z,100306.13
2022-12-08T16:02:22.539Z,100303.34
2022-12-08T16:05:33.360Z,100298.66
2022-12-08T16:07:37.147Z,100297.03
2022-12-08T16:10:03.302Z,100295.06
2022-12-08T16:13:47.965Z,100294.25
2022-12-08T16:18:23.093Z,100295.91
2022-12-08T16:23:43.160Z,100306.13
2022-12-08T16:26:23.977Z,100298.97
2022-12-08T16:28:55.960Z,100297.03
2022-12-08T16:31:23.382Z,100303.34
2022-12-08T16:33:49.179Z,100294.25
2022-12-08T16:36:14.725Z,100288.22
2022-12-08T16:38:40.281Z,100289.88
2022-12-08T16:41:25.756Z,100289.88
2022-12-08T16:43:52.170Z,100298.41
2022-12-08T16:46:18.995Z,100295.66
2022-12-08T16:48:44.637Z,100299.25
2022-12-08T16:51:21.989Z,100296.78
2022-12-08T16:53:50.736Z,100297.59
2022-12-08T16:56:16.826Z,100298.41
2022-12-08T16:58:42.700Z,100296.78
2022-12-08T17:01:10.226Z,100298.72
2022-12-08T17:03:35.849Z,100310.88
2022-12-08T17:06:01.407Z,100299.84
2022-12-08T17:08:27.038Z,100305.38
2022-12-08T17:11:06.386Z,100291.56
2022-12-08T17:13:32.281Z,100296.28
2022-12-08T17:15:57.832Z,100295.44
2022-12-08T17:18:23.377Z,100290.22
2022-12-08T17:20:48.936Z,100298.22
2022-12-08T17:23:14.486Z,100296.53
2022-12-08T17:25:40.042Z,100292.69
2022-12-08T17:28:05.597Z,100294.63
2022-12-08T17:30:31.138Z,100294.63
2022-12-08T17:32:56.688Z,100293.78
2022-12-08T17:35:22.313Z,100296.53
2022-12-08T17:37:47.863Z,100302.06
2022-12-08T17:40:13.407Z,100291.03
2022-12-08T17:42:38.972Z,100298.50
2022-12-08T17:45:05.859Z,100292.97
2022-12-08T17:47:31.609Z,100295.72
2022-12-08T17:49:57.354Z,100299.31
2022-12-08T17:52:22.921Z,100303.19
2022-12-08T17:54:48.464Z,100299.59
2022-12-08T17:57:14.009Z,100302.38
2022-12-08T17:59:39.549Z,100299.91
2022-12-08T18:02:05.284Z,100298.78
2022-12-08T18:04:30.892Z,100302.69
2022-12-08T18:06:59.336Z,100300.72
2022-12-08T18:09:24.947Z,100300.72
2022-12-08T18:11:50.530Z,100294.41
2022-12-08T18:14:16.100Z,100295.50
2022-12-08T18:16:42.787Z,100298.25
2022-12-08T18:19:08.500Z,100299.09
2022-12-08T18:21:34.077Z,100304.88
2022-12-08T18:23:59.640Z,100300.19
2022-12-08T18:26:25.219Z,100295.78
2022-12-08T18:28:50.757Z,100302.94
2022-12-08T18:31:17.458Z,100297.44
2022-12-08T18:33:43.730Z,100297.75
2022-12-08T18:36:09.916Z,100294.66
2022-12-08T18:38:35.654Z,100294.16
2022-12-08T18:41:09.191Z,100300.50
2022-12-08T18:43:34.838Z,100299.69
2022-12-08T18:46:01.274Z,100300.50
2022-12-08T18:48:26.894Z,100296.91
2022-12-08T18:50:52.433Z,100296.91
2022-12-08T18:53:17.976Z,100294.16
2022-12-08T18:55:45.817Z,100302.44
2022-12-08T18:58:13.446Z,100298.84
2022-12-08T19:00:39.227Z,100301.88
2022-12-08T19:03:04.831Z,100301.88
2022-12-08T19:05:30.398Z,100308.25
2022-12-08T19:07:56.068Z,100303.00
2022-12-08T19:10:21.659Z,100294.75
2022-12-08T19:12:49.008Z,100299.97
2022-12-08T19:15:14.566Z,100302.75
2022-12-08T19:17:40.134Z,100297.22
2022-12-08T19:20:06.308Z,100297.50
2022-12-08T19:22:32.087Z,100294.75
2022-12-08T19:24:57.624Z,100295.56
2022-12-08T19:27:23.182Z,100296.69
2022-12-08T19:29:48.729Z,100302.19
2022-12-08T19:32:14.298Z,100306.91
2022-12-08T19:34:39.957Z,100303.31
2022-12-08T19:37:06.046Z,100310.47
2022-12-08T19:39:51.502Z,100312.41
2022-12-08T19:42:38.313Z,100308.03
2022-12-08T19:45:05.635Z,100303.31
2022-12-08T19:47:31.267Z,100303.31
2022-12-08T19:50:16.806Z,100309.97
2022-12-08T19:52:42.635Z,100308.03
2022-12-08T19:55:08.313Z,100305.25
2022-12-08T19:57:33.857Z,100303.59
2022-12-08T19:59:59.448Z,100306.34
2022-12-08T20:02:25.681Z,100307.47
2022-12-08T20:04:51.313Z,100318.25
2022-12-08T20:07:16.865Z,100311.06
2022-12-08T20:09:42.412Z,100314.63
2022-12-08T20:12:07.966Z,100313.00
2022-12-08T20:14:33.516Z,100313.81
2022-12-08T20:16:59.083Z,100313.81
2022-12-08T20:19:24.622Z,100321.28
2022-12-08T20:21:50.170Z,100313.81
2022-12-08T20:24:16.026Z,100320.44
2022-12-08T20:26:41.590Z,100305.53
2022-12-08T20:29:07.221Z,100297.56
2022-12-08T20:31:33.023Z,100314.13
2022-12-08T20:33:58.854Z,100312.19
2022-12-08T20:36:24.566Z,100310.22
2022-12-08T20:38:50.574Z,100305.03
2022-12-08T20:41:16.173Z,100302.25
2022-12-08T20:43:43.460Z,100298.69
2022-12-08T20:46:09.560Z,100307.78
2022-12-08T20:48:35.323Z,100299.50
2022-12-08T20:51:00.996Z,100300.63
2022-12-08T20:53:26.552Z,100316.06
2022-12-08T20:55:52.210Z,100312.47
2022-12-08T20:58:17.796Z,100312.47
2022-12-08T21:00:43.479Z,100310.53
2022-12-08T21:03:09.320Z,100309.72
2022-12-08T21:05:37.924Z,100318.00
2022-12-08T21:08:04.645Z,100318.81
2022-12-08T21:10:30.302Z,100318.00
2022-12-08T21:12:55.876Z,100314.41
2022-12-08T21:15:21.587Z,100316.06
2022-12-08T21:17:47.360Z,100310.84
2022-12-08T21:20:13.665Z,100315.50
2022-12-08T21:22:39.337Z,100310.84
2022-12-08T21:25:05.409Z,100306.16
2022-12-08T21:27:31.117Z,100309.72
2022-12-08T21:29:56.857Z,100313.59
2022-12-08T21:32:25.752Z,100305.31
2022-12-08T21:34:55.733Z,100307.22
2022-12-08T21:37:21.329Z,100310.00
2022-12-08T21:39:46.875Z,100317.44
2022-12-08T21:42:34.247Z,100315.50
2022-12-08T21:45:00.562Z,100307.22
2022-12-08T21:47:26.203Z,100309.19
2022-12-08T21:49:52.099Z,100305.59
2022-12-08T21:52:17.833Z,100308.34
2022-12-08T21:54:43.482Z,100311.13
2022-12-08T21:57:09.290Z,100310.00
2022-12-08T21:59:35.058Z,100304.78
2022-12-08T22:02:01.014Z,100302.03
2022-12-08T22:04:26.766Z,100302.84
2022-12-08T22:06:52.683Z,100299.25
2022-12-08T22:09:18.441Z,100305.59
2022-12-08T22:11:44.163Z,100308.34
2022-12-08T22:14:14.375Z,100306.72
2022-12-08T22:16:40.913Z,100311.41
2022-12-08T22:19:06.739Z,100310.59
2022-12-08T22:21:32.380Z,100323.28
2022-12-08T22:23:58.341Z,100316.94
2022-12-08T22:26:24.145Z,100322.44
2022-12-08T22:28:49.783Z,100320.81
2022-12-08T22:31:16.668Z,100316.94
2022-12-08T22:33:42.640Z,100316.94
2022-12-08T22:36:23.858Z,100316.94
2022-12-08T22:38:49.706Z,100315.00
2022-12-08T22:41:15.556Z,100312.53
2022-12-08T22:43:41.158Z,100312.53
2022-12-08T22:46:11.903Z,100310.88
2022-12-08T22:48:38.154Z,100300.66
2022-12-08T22:51:03.908Z,100307.28
2022-12-08T22:53:29.520Z,100308.13
2022-12-08T22:55:55.078Z,100300.66
2022-12-08T22:58:20.869Z,100311.69
2022-12-08T23:00:46.638Z,100307.28
2022-12-08T23:03:12.352Z,100302.91
2022-12-08T23:05:38.476Z,100304.53
2022-12-08T23:08:04.909Z,100303.72
2022-12-08T23:10:30.790Z,100304.53
2022-12-08T23:13:02.172Z,100307.28
2022-12-08T23:15:29.462Z,100304.53
2022-12-08T23:17:55.116Z,100306.47
2022-12-08T23:20:20.772Z,100309.25
2022-12-08T23:22:46.349Z,100308.41
2022-12-08T23:25:12.138Z,100308.41
2022-12-08T23:27:37.808Z,100305.66
2022-12-08T23:30:05.052Z,100303.72
2022-12-08T23:32:30.923Z,100305.66
2022-12-08T23:34:56.749Z,100298.19
2022-12-08T23:37:22.308Z,100304.53
2022-12-08T23:39:48.040Z,100300.44
2022-12-08T23:42:13.609Z,100306.78
2022-12-08T23:44:39.166Z,100300.44
2022-12-08T23:47:05.011Z,100301.25
2022-12-08T23:49:30.759Z,100301.25
2022-12-08T23:51:56.321Z,100302.09
2022-12-08T23:54:21.903Z,100303.22
2022-12-08T23:56:47.442Z,100296.88
2022-12-08T23:59:13.021Z,100297.69
